sensor_id;sensor_type;location;lat;lon;timestamp;temperature;humidity
36442;DHT22;73131;50.820;16.274;2024-02-26T00:01:24;4.60;99.90
36442;DHT22;73131;50.820;16.274;2024-02-26T00:04:32;4.60;99.90
36442;DHT22;73131;50.820;16.274;2024-02-26T00:07:33;4.60;99.90
36442;DHT22;73131;50.820;16.274;2024-02-26T00:10:34;4.60;99.90
36442;DHT22;73131;50.820;16.274;2024-02-26T00:13:35;4.60;99.90
36442;DHT22;73131;50.820;16.274;2024-02-26T00:16:40;4.50;99.90
36442;DHT22;73131;50.820;16.274;2024-02-26T00:19:44;4.50;99.90
36442;DHT22;73131;50.820;16.274;2024-02-26T00:22:47;4.50;99.90
36442;DHT22;73131;50.820;16.274;2024-02-26T00:25:50;4.50;99.90
36442;DHT22;73131;50.820;16.274;2024-02-26T00:28:54;4.50;99.90
36442;DHT22;73131;50.820;16.274;2024-02-26T00:31:55;4.50;99.90
36442;DHT22;73131;50.820;16.274;2024-02-26T00:34:58;4.50;99.90
36442;DHT22;73131;50.820;16.274;2024-02-26T00:37:59;4.50;99.90
36442;DHT22;73131;50.820;16.274;2024-02-26T00:41:01;4.50;99.90
36442;DHT22;73131;50.820;16.274;2024-02-26T00:44:03;4.50;99.90
36442;DHT22;73131;50.820;16.274;2024-02-26T00:47:04;4.50;99.90
36442;DHT22;73131;50.820;16.274;2024-02-26T00:50:05;4.50;99.90
36442;DHT22;73131;50.820;16.274;2024-02-26T00:53:09;4.40;99.90
36442;DHT22;73131;50.820;16.274;2024-02-26T00:56:10;4.40;99.90
36442;DHT22;73131;50.820;16.274;2024-02-26T00:59:11;4.40;99.90
36442;DHT22;73131;50.820;16.274;2024-02-26T01:02:12;4.40;99.90
36442;DHT22;73131;50.820;16.274;2024-02-26T01:05:15;4.30;99.90
36442;DHT22;73131;50.820;16.274;2024-02-26T01:08:19;4.30;99.90
36442;DHT22;73131;50.820;16.274;2024-02-26T01:11:20;4.20;99.90
36442;DHT22;73131;50.820;16.274;2024-02-26T01:14:21;4.20;99.90
36442;DHT22;73131;50.820;16.274;2024-02-26T01:17:22;4.20;99.90
36442;DHT22;73131;50.820;16.274;2024-02-26T01:20:28;4.10;99.90
36442;DHT22;73131;50.820;16.274;2024-02-26T01:23:32;4.10;99.90
36442;DHT22;73131;50.820;16.274;2024-02-26T01:26:32;4.00;99.90
36442;DHT22;73131;50.820;16.274;2024-02-26T01:29:34;4.00;99.90
36442;DHT22;73131;50.820;16.274;2024-02-26T01:32:37;4.00;99.90
36442;DHT22;73131;50.820;16.274;2024-02-26T01:35:41;4.00;99.90
36442;DHT22;73131;50.820;16.274;2024-02-26T01:38:44;4.00;99.90
36442;DHT22;73131;50.820;16.274;2024-02-26T01:41:45;4.00;99.90
36442;DHT22;73131;50.820;16.274;2024-02-26T01:44:46;4.00;99.90
36442;DHT22;73131;50.820;16.274;2024-02-26T01:47:51;4.00;99.90
36442;DHT22;73131;50.820;16.274;2024-02-26T01:50:54;4.00;99.90
36442;DHT22;73131;50.820;16.274;2024-02-26T01:53:56;4.00;99.90
36442;DHT22;73131;50.820;16.274;2024-02-26T01:56:58;4.00;99.90
36442;DHT22;73131;50.820;16.274;2024-02-26T02:00:03;4.00;99.90
36442;DHT22;73131;50.820;16.274;2024-02-26T02:03:06;4.00;99.90
36442;DHT22;73131;50.820;16.274;2024-02-26T02:06:07;4.00;99.90
36442;DHT22;73131;50.820;16.274;2024-02-26T02:09:09;4.00;99.90
36442;DHT22;73131;50.820;16.274;2024-02-26T02:12:12;3.90;99.90
36442;DHT22;73131;50.820;16.274;2024-02-26T02:15:13;3.90;99.90
36442;DHT22;73131;50.820;16.274;2024-02-26T02:18:17;3.80;99.90
36442;DHT22;73131;50.820;16.274;2024-02-26T02:21:20;3.80;99.90
36442;DHT22;73131;50.820;16.274;2024-02-26T02:24:21;3.80;99.90
36442;DHT22;73131;50.820;16.274;2024-02-26T02:27:23;3.80;99.90
36442;DHT22;73131;50.820;16.274;2024-02-26T02:30:26;3.80;99.90
36442;DHT22;73131;50.820;16.274;2024-02-26T02:33:28;3.70;99.90
36442;DHT22;73131;50.820;16.274;2024-02-26T02:36:29;3.60;99.90
36442;DHT22;73131;50.820;16.274;2024-02-26T02:39:30;3.60;99.90
36442;DHT22;73131;50.820;16.274;2024-02-26T02:42:31;3.50;99.90
36442;DHT22;73131;50.820;16.274;2024-02-26T02:45:35;3.50;99.90
36442;DHT22;73131;50.820;16.274;2024-02-26T02:48:38;3.50;99.90
36442;DHT22;73131;50.820;16.274;2024-02-26T02:51:41;3.40;99.90
36442;DHT22;73131;50.820;16.274;2024-02-26T02:54:45;3.40;99.90
36442;DHT22;73131;50.820;16.274;2024-02-26T02:57:49;3.40;99.90
36442;DHT22;73131;50.820;16.274;2024-02-26T03:00:53;3.40;99.90
36442;DHT22;73131;50.820;16.274;2024-02-26T03:03:55;3.30;99.90
36442;DHT22;73131;50.820;16.274;2024-02-26T03:06:57;3.20;99.90
36442;DHT22;73131;50.820;16.274;2024-02-26T03:10:00;3.20;99.90
36442;DHT22;73131;50.820;16.274;2024-02-26T03:13:04;3.20;99.90
36442;DHT22;73131;50.820;16.274;2024-02-26T03:16:05;3.40;99.90
36442;DHT22;73131;50.820;16.274;2024-02-26T03:19:07;3.50;99.90
36442;DHT22;73131;50.820;16.274;2024-02-26T03:22:10;3.50;99.90
36442;DHT22;73131;50.820;16.274;2024-02-26T03:25:14;3.50;99.90
36442;DHT22;73131;50.820;16.274;2024-02-26T03:28:15;3.60;99.90
36442;DHT22;73131;50.820;16.274;2024-02-26T03:31:16;3.60;99.90
36442;DHT22;73131;50.820;16.274;2024-02-26T03:34:19;3.50;99.90
36442;DHT22;73131;50.820;16.274;2024-02-26T03:37:21;3.50;99.90
36442;DHT22;73131;50.820;16.274;2024-02-26T03:40:22;3.60;99.90
36442;DHT22;73131;50.820;16.274;2024-02-26T03:43:23;3.70;99.90
36442;DHT22;73131;50.820;16.274;2024-02-26T03:46:26;3.80;99.90
36442;DHT22;73131;50.820;16.274;2024-02-26T03:49:32;3.80;99.90
36442;DHT22;73131;50.820;16.274;2024-02-26T03:52:33;3.80;99.90
36442;DHT22;73131;50.820;16.274;2024-02-26T03:55:35;3.90;99.90
36442;DHT22;73131;50.820;16.274;2024-02-26T03:58:36;4.00;99.90
36442;DHT22;73131;50.820;16.274;2024-02-26T04:01:37;4.00;99.90
36442;DHT22;73131;50.820;16.274;2024-02-26T04:04:38;4.10;99.90
36442;DHT22;73131;50.820;16.274;2024-02-26T04:07:43;4.30;99.90
36442;DHT22;73131;50.820;16.274;2024-02-26T04:10:44;4.30;99.90
36442;DHT22;73131;50.820;16.274;2024-02-26T04:13:46;4.30;99.90
36442;DHT22;73131;50.820;16.274;2024-02-26T04:16:49;4.30;99.90
36442;DHT22;73131;50.820;16.274;2024-02-26T04:19:53;4.30;99.90
36442;DHT22;73131;50.820;16.274;2024-02-26T04:22:56;4.20;99.90
36442;DHT22;73131;50.820;16.274;2024-02-26T04:25:57;4.20;99.90
36442;DHT22;73131;50.820;16.274;2024-02-26T04:28:58;4.20;99.90
36442;DHT22;73131;50.820;16.274;2024-02-26T04:31:59;4.10;99.90
36442;DHT22;73131;50.820;16.274;2024-02-26T04:35:01;4.10;99.90
36442;DHT22;73131;50.820;16.274;2024-02-26T04:38:03;4.00;99.90
36442;DHT22;73131;50.820;16.274;2024-02-26T04:41:04;3.90;99.90
36442;DHT22;73131;50.820;16.274;2024-02-26T04:44:07;3.80;99.90
36442;DHT22;73131;50.820;16.274;2024-02-26T04:47:11;3.70;99.90
36442;DHT22;73131;50.820;16.274;2024-02-26T04:50:12;3.60;99.90
36442;DHT22;73131;50.820;16.274;2024-02-26T04:53:13;3.70;99.90
36442;DHT22;73131;50.820;16.274;2024-02-26T04:56:14;3.70;99.90
36442;DHT22;73131;50.820;16.274;2024-02-26T04:59:15;3.70;99.90
36442;DHT22;73131;50.820;16.274;2024-02-26T05:02:16;3.70;99.90
36442;DHT22;73131;50.820;16.274;2024-02-26T05:05:17;3.70;99.90
36442;DHT22;73131;50.820;16.274;2024-02-26T05:08:19;3.70;99.90
36442;DHT22;73131;50.820;16.274;2024-02-26T05:11:22;3.70;99.90
36442;DHT22;73131;50.820;16.274;2024-02-26T05:14:25;3.80;99.90
36442;DHT22;73131;50.820;16.274;2024-02-26T05:17:28;3.70;99.90
36442;DHT22;73131;50.820;16.274;2024-02-26T05:20:30;3.70;99.90
36442;DHT22;73131;50.820;16.274;2024-02-26T05:23:34;3.60;99.90
36442;DHT22;73131;50.820;16.274;2024-02-26T05:26:35;3.50;99.90
36442;DHT22;73131;50.820;16.274;2024-02-26T05:29:36;3.40;99.90
36442;DHT22;73131;50.820;16.274;2024-02-26T05:32:37;3.50;99.90
36442;DHT22;73131;50.820;16.274;2024-02-26T05:35:38;3.50;99.90
36442;DHT22;73131;50.820;16.274;2024-02-26T05:38:42;3.50;99.90
36442;DHT22;73131;50.820;16.274;2024-02-26T05:41:43;3.50;99.90
36442;DHT22;73131;50.820;16.274;2024-02-26T05:44:46;3.60;99.90
36442;DHT22;73131;50.820;16.274;2024-02-26T05:47:48;3.60;99.90
36442;DHT22;73131;50.820;16.274;2024-02-26T05:50:51;3.60;99.90
36442;DHT22;73131;50.820;16.274;2024-02-26T05:53:52;3.50;99.90
36442;DHT22;73131;50.820;16.274;2024-02-26T05:56:57;3.50;99.90
36442;DHT22;73131;50.820;16.274;2024-02-26T05:59:58;3.50;99.90
36442;DHT22;73131;50.820;16.274;2024-02-26T06:03:06;3.60;99.90
36442;DHT22;73131;50.820;16.274;2024-02-26T06:06:07;3.60;99.90
36442;DHT22;73131;50.820;16.274;2024-02-26T06:09:13;3.60;99.90
36442;DHT22;73131;50.820;16.274;2024-02-26T06:12:14;3.60;99.90
36442;DHT22;73131;50.820;16.274;2024-02-26T06:15:15;3.60;99.90
36442;DHT22;73131;50.820;16.274;2024-02-26T06:18:18;3.70;99.90
36442;DHT22;73131;50.820;16.274;2024-02-26T06:21:20;3.80;99.90
36442;DHT22;73131;50.820;16.274;2024-02-26T06:24:20;3.80;99.90
36442;DHT22;73131;50.820;16.274;2024-02-26T06:27:23;3.80;99.90
36442;DHT22;73131;50.820;16.274;2024-02-26T06:30:29;3.80;99.90
36442;DHT22;73131;50.820;16.274;2024-02-26T06:33:30;3.90;99.90
36442;DHT22;73131;50.820;16.274;2024-02-26T06:36:31;4.10;99.90
36442;DHT22;73131;50.820;16.274;2024-02-26T06:39:33;4.30;99.90
36442;DHT22;73131;50.820;16.274;2024-02-26T06:42:36;4.50;99.90
36442;DHT22;73131;50.820;16.274;2024-02-26T06:45:37;4.80;99.90
36442;DHT22;73131;50.820;16.274;2024-02-26T06:48:43;5.30;99.90
36442;DHT22;73131;50.820;16.274;2024-02-26T06:51:44;5.50;99.90
36442;DHT22;73131;50.820;16.274;2024-02-26T06:54:48;5.50;99.90
36442;DHT22;73131;50.820;16.274;2024-02-26T06:57:54;5.50;99.90
36442;DHT22;73131;50.820;16.274;2024-02-26T07:00:57;5.60;99.90
36442;DHT22;73131;50.820;16.274;2024-02-26T07:04:01;5.70;99.90
36442;DHT22;73131;50.820;16.274;2024-02-26T07:07:04;6.10;99.90
36442;DHT22;73131;50.820;16.274;2024-02-26T07:10:06;6.70;99.90
36442;DHT22;73131;50.820;16.274;2024-02-26T07:13:11;7.20;99.90
36442;DHT22;73131;50.820;16.274;2024-02-26T07:16:13;7.90;99.90
36442;DHT22;73131;50.820;16.274;2024-02-26T07:19:16;8.50;99.90
36442;DHT22;73131;50.820;16.274;2024-02-26T07:22:19;9.20;99.90
36442;DHT22;73131;50.820;16.274;2024-02-26T07:25:20;9.70;99.90
36442;DHT22;73131;50.820;16.274;2024-02-26T07:28:24;10.30;99.90
36442;DHT22;73131;50.820;16.274;2024-02-26T07:31:26;11.00;99.90
36442;DHT22;73131;50.820;16.274;2024-02-26T07:34:27;12.00;99.90
36442;DHT22;73131;50.820;16.274;2024-02-26T07:37:33;13.10;99.90
36442;DHT22;73131;50.820;16.274;2024-02-26T07:40:37;14.50;99.90
36442;DHT22;73131;50.820;16.274;2024-02-26T07:43:40;16.00;99.90
36442;DHT22;73131;50.820;16.274;2024-02-26T07:46:46;17.80;99.90
36442;DHT22;73131;50.820;16.274;2024-02-26T07:49:47;19.40;95.00
36442;DHT22;73131;50.820;16.274;2024-02-26T07:52:48;20.60;90.70
36442;DHT22;73131;50.820;16.274;2024-02-26T07:55:56;21.70;81.80
36442;DHT22;73131;50.820;16.274;2024-02-26T07:58:57;22.30;75.30
36442;DHT22;73131;50.820;16.274;2024-02-26T08:02:01;23.00;71.00
36442;DHT22;73131;50.820;16.274;2024-02-26T08:05:04;22.70;68.30
36442;DHT22;73131;50.820;16.274;2024-02-26T08:08:09;22.50;68.20
36442;DHT22;73131;50.820;16.274;2024-02-26T08:11:12;22.80;68.00
36442;DHT22;73131;50.820;16.274;2024-02-26T08:14:14;24.10;64.80
36442;DHT22;73131;50.820;16.274;2024-02-26T08:17:16;25.70;59.90
36442;DHT22;73131;50.820;16.274;2024-02-26T08:20:19;26.90;56.50
36442;DHT22;73131;50.820;16.274;2024-02-26T08:23:21;28.20;54.90
36442;DHT22;73131;50.820;16.274;2024-02-26T08:26:24;29.70;51.90
36442;DHT22;73131;50.820;16.274;2024-02-26T08:29:30;30.90;49.20
36442;DHT22;73131;50.820;16.274;2024-02-26T08:32:31;31.60;46.60
36442;DHT22;73131;50.820;16.274;2024-02-26T08:35:35;31.50;45.90
36442;DHT22;73131;50.820;16.274;2024-02-26T08:38:38;32.00;44.80
36442;DHT22;73131;50.820;16.274;2024-02-26T08:41:40;32.10;44.50
36442;DHT22;73131;50.820;16.274;2024-02-26T08:44:41;31.80;44.10
36442;DHT22;73131;50.820;16.274;2024-02-26T08:47:45;31.10;43.20
36442;DHT22;73131;50.820;16.274;2024-02-26T08:50:46;29.00;42.90
36442;DHT22;73131;50.820;16.274;2024-02-26T08:53:47;25.90;45.00
36442;DHT22;73131;50.820;16.274;2024-02-26T08:56:48;23.30;47.80
36442;DHT22;73131;50.820;16.274;2024-02-26T08:59:49;20.70;51.50
36442;DHT22;73131;50.820;16.274;2024-02-26T09:02:50;20.30;54.60
36442;DHT22;73131;50.820;16.274;2024-02-26T09:05:51;20.50;53.70
36442;DHT22;73131;50.820;16.274;2024-02-26T09:08:54;20.70;54.00
36442;DHT22;73131;50.820;16.274;2024-02-26T09:11:56;21.30;53.00
36442;DHT22;73131;50.820;16.274;2024-02-26T09:14:57;20.20;53.80
36442;DHT22;73131;50.820;16.274;2024-02-26T09:18:01;20.80;54.40
36442;DHT22;73131;50.820;16.274;2024-02-26T09:21:06;20.60;52.70
36442;DHT22;73131;50.820;16.274;2024-02-26T09:24:10;19.70;54.00
36442;DHT22;73131;50.820;16.274;2024-02-26T09:27:11;18.10;56.90
36442;DHT22;73131;50.820;16.274;2024-02-26T09:30:17;16.80;60.00
36442;DHT22;73131;50.820;16.274;2024-02-26T09:33:20;16.50;63.60
36442;DHT22;73131;50.820;16.274;2024-02-26T09:36:24;16.70;63.10
36442;DHT22;73131;50.820;16.274;2024-02-26T09:39:29;17.20;64.10
36442;DHT22;73131;50.820;16.274;2024-02-26T09:42:31;16.50;66.00
36442;DHT22;73131;50.820;16.274;2024-02-26T09:45:38;16.10;71.10
36442;DHT22;73131;50.820;16.274;2024-02-26T09:48:42;16.70;71.30
36442;DHT22;73131;50.820;16.274;2024-02-26T09:51:43;16.30;74.40
36442;DHT22;73131;50.820;16.274;2024-02-26T09:54:47;15.80;79.50
36442;DHT22;73131;50.820;16.274;2024-02-26T09:57:51;15.40;80.60
36442;DHT22;73131;50.820;16.274;2024-02-26T10:00:56;14.80;86.50
36442;DHT22;73131;50.820;16.274;2024-02-26T10:04:03;13.90;91.50
36442;DHT22;73131;50.820;16.274;2024-02-26T10:07:10;13.20;94.70
36442;DHT22;73131;50.820;16.274;2024-02-26T10:10:16;12.70;98.60
36442;DHT22;73131;50.820;16.274;2024-02-26T10:13:17;12.30;99.90
36442;DHT22;73131;50.820;16.274;2024-02-26T10:16:22;11.90;99.90
36442;DHT22;73131;50.820;16.274;2024-02-26T10:19:28;11.60;99.90
36442;DHT22;73131;50.820;16.274;2024-02-26T10:22:32;11.30;99.90
36442;DHT22;73131;50.820;16.274;2024-02-26T10:25:53;11.30;99.90
36442;DHT22;73131;50.820;16.274;2024-02-26T10:28:59;11.10;99.90
36442;DHT22;73131;50.820;16.274;2024-02-26T10:32:02;10.90;99.90
36442;DHT22;73131;50.820;16.274;2024-02-26T10:35:04;10.80;99.90
36442;DHT22;73131;50.820;16.274;2024-02-26T10:38:11;10.80;99.90
36442;DHT22;73131;50.820;16.274;2024-02-26T10:41:17;10.70;99.90
36442;DHT22;73131;50.820;16.274;2024-02-26T10:44:19;10.80;99.90
36442;DHT22;73131;50.820;16.274;2024-02-26T10:47:20;10.60;99.90
36442;DHT22;73131;50.820;16.274;2024-02-26T10:50:25;10.50;99.90
36442;DHT22;73131;50.820;16.274;2024-02-26T10:53:29;10.40;99.90
36442;DHT22;73131;50.820;16.274;2024-02-26T10:56:34;10.40;99.90
36442;DHT22;73131;50.820;16.274;2024-02-26T10:59:36;10.50;99.90
36442;DHT22;73131;50.820;16.274;2024-02-26T11:02:40;10.60;99.90
36442;DHT22;73131;50.820;16.274;2024-02-26T11:05:43;10.60;99.90
36442;DHT22;73131;50.820;16.274;2024-02-26T11:08:51;10.70;99.90
36442;DHT22;73131;50.820;16.274;2024-02-26T11:11:52;10.70;99.90
36442;DHT22;73131;50.820;16.274;2024-02-26T11:14:56;10.70;99.90
36442;DHT22;73131;50.820;16.274;2024-02-26T11:17:59;10.60;99.90
36442;DHT22;73131;50.820;16.274;2024-02-26T11:21:03;10.60;99.90
36442;DHT22;73131;50.820;16.274;2024-02-26T11:24:09;10.60;99.90
36442;DHT22;73131;50.820;16.274;2024-02-26T11:27:12;10.70;99.90
36442;DHT22;73131;50.820;16.274;2024-02-26T11:30:13;10.70;99.90
36442;DHT22;73131;50.820;16.274;2024-02-26T11:33:19;10.60;99.90
36442;DHT22;73131;50.820;16.274;2024-02-26T11:36:20;10.70;99.90
36442;DHT22;73131;50.820;16.274;2024-02-26T11:39:22;10.80;99.90
36442;DHT22;73131;50.820;16.274;2024-02-26T11:42:24;11.00;99.90
36442;DHT22;73131;50.820;16.274;2024-02-26T11:48:45;11.20;99.90
36442;DHT22;73131;50.820;16.274;2024-02-26T11:51:51;11.30;99.90
36442;DHT22;73131;50.820;16.274;2024-02-26T11:54:58;11.40;99.90
36442;DHT22;73131;50.820;16.274;2024-02-26T11:58:00;11.60;99.90
36442;DHT22;73131;50.820;16.274;2024-02-26T12:01:05;11.70;99.90
36442;DHT22;73131;50.820;16.274;2024-02-26T12:04:11;11.80;99.90
36442;DHT22;73131;50.820;16.274;2024-02-26T12:07:15;11.90;99.90
36442;DHT22;73131;50.820;16.274;2024-02-26T12:10:28;11.90;99.90
36442;DHT22;73131;50.820;16.274;2024-02-26T12:13:35;12.10;99.90
36442;DHT22;73131;50.820;16.274;2024-02-26T12:16:37;12.20;99.90
36442;DHT22;73131;50.820;16.274;2024-02-26T12:19:38;12.30;99.90
36442;DHT22;73131;50.820;16.274;2024-02-26T12:22:44;12.50;99.90
36442;DHT22;73131;50.820;16.274;2024-02-26T12:25:45;12.60;99.90
36442;DHT22;73131;50.820;16.274;2024-02-26T12:28:49;12.60;99.90
36442;DHT22;73131;50.820;16.274;2024-02-26T12:31:50;12.70;99.90
36442;DHT22;73131;50.820;16.274;2024-02-26T12:34:53;12.70;99.90
36442;DHT22;73131;50.820;16.274;2024-02-26T12:37:57;12.70;99.90
36442;DHT22;73131;50.820;16.274;2024-02-26T12:40:58;12.80;99.90
36442;DHT22;73131;50.820;16.274;2024-02-26T12:44:00;12.80;99.90
36442;DHT22;73131;50.820;16.274;2024-02-26T12:47:04;12.80;99.90
36442;DHT22;73131;50.820;16.274;2024-02-26T12:50:06;12.70;99.90
36442;DHT22;73131;50.820;16.274;2024-02-26T12:53:10;12.60;99.90
36442;DHT22;73131;50.820;16.274;2024-02-26T12:56:14;12.40;99.90
36442;DHT22;73131;50.820;16.274;2024-02-26T12:59:17;12.30;99.90
36442;DHT22;73131;50.820;16.274;2024-02-26T13:02:20;12.20;99.90
36442;DHT22;73131;50.820;16.274;2024-02-26T13:05:22;12.20;99.90
36442;DHT22;73131;50.820;16.274;2024-02-26T13:08:25;12.10;99.90
36442;DHT22;73131;50.820;16.274;2024-02-26T13:11:28;12.00;99.90
36442;DHT22;73131;50.820;16.274;2024-02-26T13:14:29;11.90;99.90
36442;DHT22;73131;50.820;16.274;2024-02-26T13:17:33;11.90;99.90
36442;DHT22;73131;50.820;16.274;2024-02-26T13:20:38;11.90;99.90
36442;DHT22;73131;50.820;16.274;2024-02-26T13:23:43;11.80;99.90
36442;DHT22;73131;50.820;16.274;2024-02-26T13:26:55;11.90;99.90
36442;DHT22;73131;50.820;16.274;2024-02-26T13:30:12;11.80;99.90
36442;DHT22;73131;50.820;16.274;2024-02-26T13:33:13;11.80;99.90
36442;DHT22;73131;50.820;16.274;2024-02-26T13:36:17;11.80;99.90
36442;DHT22;73131;50.820;16.274;2024-02-26T13:39:24;11.80;99.90
36442;DHT22;73131;50.820;16.274;2024-02-26T13:42:26;11.80;99.90
36442;DHT22;73131;50.820;16.274;2024-02-26T13:45:27;11.80;99.90
36442;DHT22;73131;50.820;16.274;2024-02-26T13:48:32;11.80;99.90
36442;DHT22;73131;50.820;16.274;2024-02-26T13:51:36;11.90;99.90
36442;DHT22;73131;50.820;16.274;2024-02-26T13:54:40;11.90;99.90
36442;DHT22;73131;50.820;16.274;2024-02-26T13:57:44;11.90;99.90
36442;DHT22;73131;50.820;16.274;2024-02-26T14:00:45;11.90;99.90
36442;DHT22;73131;50.820;16.274;2024-02-26T14:03:49;11.90;99.90
36442;DHT22;73131;50.820;16.274;2024-02-26T14:06:50;11.90;99.90
36442;DHT22;73131;50.820;16.274;2024-02-26T14:09:53;11.90;99.90
36442;DHT22;73131;50.820;16.274;2024-02-26T14:12:55;11.90;99.90
36442;DHT22;73131;50.820;16.274;2024-02-26T14:15:58;11.90;99.90
36442;DHT22;73131;50.820;16.274;2024-02-26T14:19:01;11.80;99.90
36442;DHT22;73131;50.820;16.274;2024-02-26T14:22:05;11.80;99.90
36442;DHT22;73131;50.820;16.274;2024-02-26T14:25:08;11.80;99.90
36442;DHT22;73131;50.820;16.274;2024-02-26T14:28:10;11.70;99.90
36442;DHT22;73131;50.820;16.274;2024-02-26T14:31:11;11.60;99.90
36442;DHT22;73131;50.820;16.274;2024-02-26T14:34:12;11.60;99.90
36442;DHT22;73131;50.820;16.274;2024-02-26T14:37:13;11.60;99.90
36442;DHT22;73131;50.820;16.274;2024-02-26T14:40:15;11.50;99.90
36442;DHT22;73131;50.820;16.274;2024-02-26T14:43:18;11.50;99.90
36442;DHT22;73131;50.820;16.274;2024-02-26T14:46:19;11.50;99.90
36442;DHT22;73131;50.820;16.274;2024-02-26T14:49:25;11.50;99.90
36442;DHT22;73131;50.820;16.274;2024-02-26T14:52:26;11.50;99.90
36442;DHT22;73131;50.820;16.274;2024-02-26T14:55:27;11.50;99.90
36442;DHT22;73131;50.820;16.274;2024-02-26T14:58:30;11.50;99.90
36442;DHT22;73131;50.820;16.274;2024-02-26T15:01:34;11.50;99.90
36442;DHT22;73131;50.820;16.274;2024-02-26T15:04:36;11.50;99.90
36442;DHT22;73131;50.820;16.274;2024-02-26T15:07:39;11.50;99.90
36442;DHT22;73131;50.820;16.274;2024-02-26T15:10:40;11.40;99.90
36442;DHT22;73131;50.820;16.274;2024-02-26T15:13:48;11.50;99.90
36442;DHT22;73131;50.820;16.274;2024-02-26T15:16:49;11.40;99.90
36442;DHT22;73131;50.820;16.274;2024-02-26T15:19:51;11.40;99.90
36442;DHT22;73131;50.820;16.274;2024-02-26T15:22:52;11.40;99.90
36442;DHT22;73131;50.820;16.274;2024-02-26T15:25:53;11.40;99.90
36442;DHT22;73131;50.820;16.274;2024-02-26T15:28:54;11.40;99.90
36442;DHT22;73131;50.820;16.274;2024-02-26T15:31:55;11.30;99.90
36442;DHT22;73131;50.820;16.274;2024-02-26T15:34:56;11.30;99.90
36442;DHT22;73131;50.820;16.274;2024-02-26T15:38:00;11.30;99.90
36442;DHT22;73131;50.820;16.274;2024-02-26T15:41:12;11.30;99.90
36442;DHT22;73131;50.820;16.274;2024-02-26T15:44:14;11.20;99.90
36442;DHT22;73131;50.820;16.274;2024-02-26T15:47:15;11.20;99.90
36442;DHT22;73131;50.820;16.274;2024-02-26T15:50:16;11.10;99.90
36442;DHT22;73131;50.820;16.274;2024-02-26T15:53:17;11.10;99.90
36442;DHT22;73131;50.820;16.274;2024-02-26T15:56:19;11.00;99.90
36442;DHT22;73131;50.820;16.274;2024-02-26T15:59:23;11.00;99.90
36442;DHT22;73131;50.820;16.274;2024-02-26T16:02:27;10.90;99.90
36442;DHT22;73131;50.820;16.274;2024-02-26T16:05:28;10.80;99.90
36442;DHT22;73131;50.820;16.274;2024-02-26T16:08:29;10.80;99.90
36442;DHT22;73131;50.820;16.274;2024-02-26T16:11:34;10.70;99.90
36442;DHT22;73131;50.820;16.274;2024-02-26T16:17:51;10.60;99.90
36442;DHT22;73131;50.820;16.274;2024-02-26T16:20:55;10.50;99.90
36442;DHT22;73131;50.820;16.274;2024-02-26T16:23:57;10.50;99.90
36442;DHT22;73131;50.820;16.274;2024-02-26T16:27:02;10.40;99.90
36442;DHT22;73131;50.820;16.274;2024-02-26T16:30:04;10.40;99.90
36442;DHT22;73131;50.820;16.274;2024-02-26T16:33:08;10.30;99.90
36442;DHT22;73131;50.820;16.274;2024-02-26T16:36:16;10.30;99.90
36442;DHT22;73131;50.820;16.274;2024-02-26T16:39:20;10.20;99.90
36442;DHT22;73131;50.820;16.274;2024-02-26T16:42:21;10.20;99.90
36442;DHT22;73131;50.820;16.274;2024-02-26T16:45:23;10.20;99.90
36442;DHT22;73131;50.820;16.274;2024-02-26T16:48:24;10.10;99.90
36442;DHT22;73131;50.820;16.274;2024-02-26T16:51:30;10.10;99.90
36442;DHT22;73131;50.820;16.274;2024-02-26T16:54:30;10.10;99.90
36442;DHT22;73131;50.820;16.274;2024-02-26T16:57:32;10.10;99.90
36442;DHT22;73131;50.820;16.274;2024-02-26T17:00:33;10.00;99.90
36442;DHT22;73131;50.820;16.274;2024-02-26T17:03:38;10.00;99.90
36442;DHT22;73131;50.820;16.274;2024-02-26T17:06:41;10.00;99.90
36442;DHT22;73131;50.820;16.274;2024-02-26T17:09:44;9.90;99.90
36442;DHT22;73131;50.820;16.274;2024-02-26T17:12:45;9.80;99.90
36442;DHT22;73131;50.820;16.274;2024-02-26T17:15:49;9.80;99.90
36442;DHT22;73131;50.820;16.274;2024-02-26T17:18:50;9.80;99.90
36442;DHT22;73131;50.820;16.274;2024-02-26T17:21:54;9.80;99.90
36442;DHT22;73131;50.820;16.274;2024-02-26T17:24:55;9.80;99.90
36442;DHT22;73131;50.820;16.274;2024-02-26T17:27:56;9.70;99.90
36442;DHT22;73131;50.820;16.274;2024-02-26T17:30:57;9.60;99.90
36442;DHT22;73131;50.820;16.274;2024-02-26T17:33:58;9.50;99.90
36442;DHT22;73131;50.820;16.274;2024-02-26T17:37:01;9.50;99.90
36442;DHT22;73131;50.820;16.274;2024-02-26T17:40:03;9.40;99.90
36442;DHT22;73131;50.820;16.274;2024-02-26T17:43:05;9.30;99.90
36442;DHT22;73131;50.820;16.274;2024-02-26T17:46:06;9.30;99.90
36442;DHT22;73131;50.820;16.274;2024-02-26T17:49:08;9.20;99.90
36442;DHT22;73131;50.820;16.274;2024-02-26T17:52:10;9.20;99.90
36442;DHT22;73131;50.820;16.274;2024-02-26T17:55:11;9.10;99.90
36442;DHT22;73131;50.820;16.274;2024-02-26T17:58:14;9.10;99.90
36442;DHT22;73131;50.820;16.274;2024-02-26T18:01:18;9.00;99.90
36442;DHT22;73131;50.820;16.274;2024-02-26T18:04:24;8.90;99.90
36442;DHT22;73131;50.820;16.274;2024-02-26T18:07:27;8.90;99.90
36442;DHT22;73131;50.820;16.274;2024-02-26T18:10:28;8.80;99.90
36442;DHT22;73131;50.820;16.274;2024-02-26T18:13:29;8.80;99.90
36442;DHT22;73131;50.820;16.274;2024-02-26T18:16:31;8.70;99.90
36442;DHT22;73131;50.820;16.274;2024-02-26T18:19:32;8.70;99.90
36442;DHT22;73131;50.820;16.274;2024-02-26T18:22:34;8.60;99.90
36442;DHT22;73131;50.820;16.274;2024-02-26T18:25:36;8.50;99.90
36442;DHT22;73131;50.820;16.274;2024-02-26T18:28:37;8.50;99.90
36442;DHT22;73131;50.820;16.274;2024-02-26T18:31:40;8.40;99.90
36442;DHT22;73131;50.820;16.274;2024-02-26T18:34:41;8.30;99.90
36442;DHT22;73131;50.820;16.274;2024-02-26T18:37:43;8.30;99.90
36442;DHT22;73131;50.820;16.274;2024-02-26T18:40:46;8.20;99.90
36442;DHT22;73131;50.820;16.274;2024-02-26T18:43:52;8.20;99.90
36442;DHT22;73131;50.820;16.274;2024-02-26T18:46:53;8.10;99.90
36442;DHT22;73131;50.820;16.274;2024-02-26T18:49:58;8.00;99.90
36442;DHT22;73131;50.820;16.274;2024-02-26T18:53:00;7.90;99.90
36442;DHT22;73131;50.820;16.274;2024-02-26T18:56:05;7.90;99.90
36442;DHT22;73131;50.820;16.274;2024-02-26T18:59:06;7.80;99.90
36442;DHT22;73131;50.820;16.274;2024-02-26T19:02:13;7.80;99.90
36442;DHT22;73131;50.820;16.274;2024-02-26T19:05:15;7.70;99.90
36442;DHT22;73131;50.820;16.274;2024-02-26T19:08:16;7.70;99.90
36442;DHT22;73131;50.820;16.274;2024-02-26T19:11:19;7.70;99.90